createdAt,value
2019-06-20T00:00:36.972Z,12.33
2019-06-20T00:03:05.542Z,11.67
2019-06-20T00:05:33.923Z,10.10
2019-06-20T00:08:02.690Z,9.27
2019-06-20T00:10:30.891Z,9.47
2019-06-20T00:13:00.986Z,10.27
2019-06-20T00:15:29.458Z,9.75
2019-06-20T00:17:57.688Z,7.03
2019-06-20T00:20:26.065Z,8.33
2019-06-20T00:22:54.613Z,9.40
2019-06-20T00:25:22.779Z,12.40
2019-06-20T00:27:51.020Z,15.20
2019-06-20T00:30:19.396Z,9.00
2019-06-20T00:32:47.649Z,10.87
2019-06-20T00:35:16.119Z,7.87
2019-06-20T00:37:44.738Z,10.50
2019-06-20T00:40:13.082Z,11.77
2019-06-20T00:42:41.308Z,8.93
2019-06-20T00:45:09.780Z,8.30
2019-06-20T00:47:38.231Z,8.03
2019-06-20T00:50:06.657Z,8.27
2019-06-20T00:52:34.963Z,13.07
2019-06-20T00:55:04.936Z,12.30
2019-06-20T00:57:35.142Z,15.10
2019-06-20T01:00:07.153Z,22.93
2019-06-20T01:02:35.425Z,15.87
2019-06-20T01:05:04.786Z,10.13
2019-06-20T01:07:33.430Z,9.70
2019-06-20T01:10:02.026Z,12.47
2019-06-20T01:12:30.661Z,12.23
2019-06-20T01:14:59.056Z,14.73
2019-06-20T01:17:27.310Z,13.63
2019-06-20T01:19:58.206Z,19.63
2019-06-20T01:22:25.602Z,12.17
2019-06-20T01:24:54.210Z,10.87
2019-06-20T01:27:22.651Z,9.77
2019-06-20T01:29:51.356Z,9.70
2019-06-20T01:32:19.488Z,9.20
2019-06-20T01:34:47.989Z,16.27
2019-06-20T01:37:16.770Z,14.47
2019-06-20T01:39:45.383Z,11.70
2019-06-20T01:42:13.903Z,12.63
2019-06-20T01:44:42.149Z,12.37
2019-06-20T01:47:10.872Z,11.23
2019-06-20T01:49:39.327Z,12.10
2019-06-20T01:52:07.905Z,11.30
2019-06-20T01:54:36.457Z,17.93
2019-06-20T01:57:04.859Z,18.70
2019-06-20T01:59:34.420Z,15.80
2019-06-20T02:02:02.792Z,15.17
2019-06-20T02:04:31.735Z,10.37
2019-06-20T02:07:00.355Z,9.90
2019-06-20T02:09:28.674Z,9.83
2019-06-20T02:11:57.132Z,10.93
2019-06-20T02:14:25.890Z,11.63
2019-06-20T02:16:54.409Z,13.50
2019-06-20T02:19:22.839Z,12.10
2019-06-20T02:21:51.251Z,10.93
2019-06-20T02:24:19.709Z,11.03
2019-06-20T02:26:47.933Z,11.70
2019-06-20T02:29:16.359Z,13.40
2019-06-20T02:31:44.941Z,9.50
2019-06-20T02:34:13.649Z,9.10
2019-06-20T02:36:42.288Z,9.00
2019-06-20T02:39:10.829Z,9.57
2019-06-20T02:41:39.374Z,9.27
2019-06-20T02:44:24.777Z,11.53
2019-06-20T02:46:38.017Z,9.43
2019-06-20T02:49:06.447Z,10.00
2019-06-20T02:51:35.344Z,10.10
2019-06-20T02:54:04.480Z,18.33
2019-06-20T02:56:32.917Z,18.67
2019-06-20T02:59:01.964Z,10.37
2019-06-20T03:01:31.251Z,10.87
2019-06-20T03:03:59.991Z,8.90
2019-06-20T03:06:28.366Z,10.93
2019-06-20T03:08:56.988Z,9.83
2019-06-20T03:11:25.341Z,10.53
2019-06-20T03:13:53.743Z,12.33
2019-06-20T03:16:21.985Z,9.30
2019-06-20T03:18:50.420Z,10.73
2019-06-20T03:21:19.091Z,14.07
2019-06-20T03:23:47.569Z,10.77
2019-06-20T03:26:16.373Z,10.23
2019-06-20T03:28:44.934Z,15.67
2019-06-20T03:31:13.536Z,12.70
2019-06-20T03:33:41.923Z,15.50
2019-06-20T03:36:10.431Z,13.17
2019-06-20T03:38:38.841Z,10.57
2019-06-20T03:41:07.043Z,16.07
2019-06-20T03:43:35.628Z,12.03
2019-06-20T03:46:04.370Z,10.13
2019-06-20T03:48:32.559Z,9.50
2019-06-20T03:51:01.202Z,9.07
2019-06-20T03:53:29.424Z,9.07
2019-06-20T03:55:57.687Z,9.93
2019-06-20T03:58:26.487Z,9.93
2019-06-20T04:00:55.301Z,14.40
2019-06-20T04:03:24.732Z,11.47
2019-06-20T04:05:53.208Z,13.70
2019-06-20T04:08:21.435Z,11.17
2019-06-20T04:10:50.165Z,12.17
2019-06-20T04:13:18.806Z,11.73
2019-06-20T04:15:47.267Z,9.23
2019-06-20T04:18:15.689Z,10.90
2019-06-20T04:20:44.244Z,8.77
2019-06-20T04:23:13.027Z,9.03
2019-06-20T04:25:41.451Z,8.83
2019-06-20T04:28:09.852Z,9.37
2019-06-20T04:30:38.337Z,7.47
2019-06-20T04:33:07.106Z,7.97
2019-06-20T04:35:35.350Z,9.23
2019-06-20T04:38:03.608Z,9.43
2019-06-20T04:40:32.064Z,8.97
2019-06-20T04:43:00.620Z,7.47
2019-06-20T04:45:35.054Z,9.13
2019-06-20T04:48:00.809Z,8.60
2019-06-20T04:50:29.088Z,8.80
2019-06-20T04:52:57.416Z,8.53
2019-06-20T04:55:25.847Z,10.33
2019-06-20T04:57:54.060Z,9.30
2019-06-20T05:00:22.294Z,10.03
2019-06-20T05:02:50.679Z,11.70
2019-06-20T05:05:19.778Z,9.30
2019-06-20T05:07:48.640Z,9.63
2019-06-20T05:10:16.907Z,9.63
2019-06-20T05:12:45.623Z,9.83
2019-06-20T05:15:14.387Z,12.03
2019-06-20T05:17:43.207Z,11.78
2019-06-20T05:20:11.863Z,13.88
2019-06-20T05:22:40.202Z,13.80
2019-06-20T05:25:08.724Z,14.53
2019-06-20T05:27:37.519Z,12.50
2019-06-20T05:30:09.771Z,13.70
2019-06-20T05:32:38.120Z,12.35
2019-06-20T05:35:07.066Z,12.40
2019-06-20T05:37:35.921Z,12.75
2019-06-20T05:40:07.503Z,22.73
2019-06-20T05:42:36.055Z,18.40
2019-06-20T05:45:06.622Z,20.25
2019-06-20T05:47:35.248Z,20.37
2019-06-20T05:50:05.935Z,17.83
2019-06-20T05:52:35.064Z,16.03
2019-06-20T05:55:05.082Z,15.00
2019-06-20T05:57:33.614Z,13.38
2019-06-20T06:00:01.966Z,10.90
2019-06-20T06:02:30.589Z,11.00
2019-06-20T06:04:59.544Z,21.13
2019-06-20T06:07:29.390Z,15.98
2019-06-20T06:09:57.678Z,10.75
2019-06-20T06:12:27.422Z,11.28
2019-06-20T06:14:56.470Z,16.75
2019-06-20T06:17:25.012Z,15.75
2019-06-20T06:19:53.580Z,11.53
2019-06-20T06:22:21.824Z,9.80
2019-06-20T06:24:50.709Z,12.10
2019-06-20T06:27:19.682Z,12.55
2019-06-20T06:29:48.656Z,11.75
2019-06-20T06:32:20.060Z,8.58
2019-06-20T06:34:47.845Z,12.80
2019-06-20T06:37:16.473Z,9.95
2019-06-20T06:39:45.367Z,9.15
2019-06-20T06:42:13.546Z,10.00
2019-06-20T06:44:42.434Z,9.23
2019-06-20T06:47:11.092Z,10.18
2019-06-20T06:49:39.752Z,9.58
2019-06-20T06:52:08.075Z,8.65
2019-06-20T06:54:36.821Z,8.33
2019-06-20T06:57:05.529Z,10.85
2019-06-20T06:59:34.022Z,11.10
2019-06-20T07:02:02.298Z,9.08
2019-06-20T07:04:30.811Z,8.10
2019-06-20T07:06:59.672Z,8.38
2019-06-20T07:09:29.578Z,12.03
2019-06-20T07:11:57.941Z,8.03
2019-06-20T07:14:26.149Z,8.55
2019-06-20T07:17:00.401Z,10.32
2019-06-20T07:19:25.711Z,8.75
2019-06-20T07:21:54.146Z,8.93
2019-06-20T07:24:22.610Z,8.10
2019-06-20T07:26:51.318Z,7.75
2019-06-20T07:29:19.688Z,6.60
2019-06-20T07:31:47.947Z,6.25
2019-06-20T07:34:16.819Z,5.60
2019-06-20T07:36:45.059Z,5.53
2019-06-20T07:39:13.456Z,5.70
2019-06-20T07:41:42.262Z,6.47
2019-06-20T07:44:10.967Z,5.00
2019-06-20T07:46:39.738Z,5.28
2019-06-20T07:49:08.089Z,5.33
2019-06-20T07:51:38.708Z,5.28
2019-06-20T07:54:06.725Z,5.80
2019-06-20T07:56:35.099Z,5.60
2019-06-20T07:59:05.144Z,6.22
2019-06-20T08:01:33.833Z,7.33
2019-06-20T08:04:02.078Z,6.87
2019-06-20T08:06:30.812Z,7.30
2019-06-20T08:08:59.224Z,7.00
2019-06-20T08:11:28.736Z,7.85
2019-06-20T08:13:57.272Z,6.40
2019-06-20T08:16:26.084Z,7.50
2019-06-20T08:18:54.440Z,5.97
2019-06-20T08:21:22.983Z,6.92
2019-06-20T08:23:51.611Z,5.95
2019-06-20T08:26:19.866Z,8.50
2019-06-20T08:28:49.788Z,5.92
2019-06-20T08:31:18.349Z,7.12
2019-06-20T08:33:46.641Z,7.47
2019-06-20T08:36:15.489Z,7.80
2019-06-20T08:38:43.991Z,6.53
2019-06-20T08:41:12.882Z,6.95
2019-06-20T08:43:41.618Z,8.65
2019-06-20T08:46:10.555Z,16.17
2019-06-20T08:48:39.272Z,26.27
2019-06-20T08:51:09.837Z,31.12
2019-06-20T08:53:38.445Z,26.48
2019-06-20T08:56:07.878Z,11.03
2019-06-20T08:58:39.925Z,9.25
2019-06-20T09:03:37.078Z,6.50
2019-06-20T09:06:05.558Z,6.03
2019-06-20T09:08:34.245Z,5.65
2019-06-20T09:11:04.020Z,6.95
2019-06-20T09:13:36.979Z,5.92
2019-06-20T09:16:06.705Z,7.22
2019-06-20T09:18:36.920Z,5.72
2019-06-20T09:21:07.086Z,6.62
2019-06-20T09:23:35.830Z,5.72
2019-06-20T09:26:04.318Z,6.45
2019-06-20T09:28:32.638Z,7.30
2019-06-20T09:31:01.501Z,12.07
2019-06-20T09:33:30.083Z,23.35
2019-06-20T09:35:59.552Z,10.00
2019-06-20T09:38:30.544Z,7.20
2019-06-20T09:41:00.561Z,7.15
2019-06-20T09:43:29.336Z,10.78
2019-06-20T09:45:58.363Z,12.63
2019-06-20T09:48:26.897Z,10.65
2019-06-20T09:50:56.915Z,11.38
2019-06-20T09:53:25.654Z,7.72
2019-06-20T09:55:53.997Z,8.75
2019-06-20T09:58:22.519Z,6.42
2019-06-20T10:00:51.044Z,7.70
2019-06-20T10:03:20.576Z,6.12
2019-06-20T10:05:50.408Z,5.35
2019-06-20T10:08:19.660Z,5.72
2019-06-20T10:10:49.299Z,6.33
2019-06-20T10:13:18.696Z,5.62
2019-06-20T10:15:49.397Z,7.03
2019-06-20T10:18:18.314Z,6.87
2019-06-20T10:20:47.264Z,6.00
2019-06-20T10:23:16.088Z,7.65
2019-06-20T10:25:46.038Z,4.85
2019-06-20T10:28:14.683Z,5.83
2019-06-20T10:30:44.687Z,5.33
2019-06-20T10:33:13.889Z,6.22
2019-06-20T10:35:42.466Z,5.25
2019-06-20T10:38:11.229Z,5.83
2019-06-20T10:40:39.529Z,5.42
2019-06-20T10:43:07.928Z,5.83
2019-06-20T10:45:36.485Z,6.12
2019-06-20T10:48:05.165Z,6.50
2019-06-20T10:50:33.444Z,5.62
2019-06-20T10:53:02.155Z,5.87
2019-06-20T10:55:30.927Z,5.85
2019-06-20T10:57:59.659Z,7.47
2019-06-20T11:00:31.802Z,5.15
2019-06-20T11:03:00.342Z,5.12
2019-06-20T11:05:28.769Z,5.42
2019-06-20T11:07:57.698Z,6.35
2019-06-20T11:10:25.891Z,7.22
2019-06-20T11:12:56.331Z,7.62
2019-06-20T11:15:25.013Z,6.35
2019-06-20T11:17:56.562Z,5.78
2019-06-20T11:20:25.507Z,6.60
2019-06-20T11:22:54.258Z,9.88
2019-06-20T11:25:22.635Z,6.35
2019-06-20T11:27:51.030Z,6.37
2019-06-20T11:30:21.098Z,11.63
2019-06-20T11:32:49.756Z,8.40
2019-06-20T11:35:18.237Z,5.55
2019-06-20T11:37:47.340Z,5.95
2019-06-20T11:40:16.590Z,6.12
2019-06-20T11:42:44.794Z,6.00
2019-06-20T11:45:13.551Z,7.60
2019-06-20T11:47:42.546Z,5.17
2019-06-20T11:50:11.311Z,5.40
2019-06-20T11:52:42.420Z,6.47
2019-06-20T11:55:09.933Z,5.53
2019-06-20T11:57:38.284Z,5.00
2019-06-20T12:00:06.676Z,5.33
2019-06-20T12:02:34.934Z,4.58
2019-06-20T12:05:05.040Z,5.58
2019-06-20T12:07:33.736Z,5.33
2019-06-20T12:10:02.424Z,5.40
2019-06-20T12:12:31.036Z,5.17
2019-06-20T12:14:59.380Z,14.60
2019-06-20T12:17:28.305Z,10.53
2019-06-20T12:19:57.476Z,10.65
2019-06-20T12:22:26.075Z,15.93
2019-06-20T12:24:56.517Z,6.58
2019-06-20T12:27:25.076Z,7.75
2019-06-20T12:29:55.836Z,5.28
2019-06-20T12:32:33.205Z,5.75
2019-06-20T12:35:07.801Z,5.17
2019-06-20T12:37:36.407Z,5.30
2019-06-20T12:40:07.761Z,7.47
2019-06-20T12:42:39.825Z,6.22
2019-06-20T12:45:11.990Z,5.72
2019-06-20T12:47:41.813Z,5.20
2019-06-20T12:50:10.697Z,5.17
2019-06-20T12:52:41.243Z,7.20
2019-06-20T12:55:10.668Z,5.53
2019-06-20T12:57:40.245Z,5.35
2019-06-20T13:00:09.708Z,5.12
2019-06-20T13:02:38.684Z,4.67
2019-06-20T13:05:08.647Z,6.70
2019-06-20T13:07:38.638Z,5.10
2019-06-20T13:10:07.773Z,4.90
2019-06-20T13:12:36.349Z,5.55
2019-06-20T13:15:07.466Z,8.10
2019-06-20T13:17:35.732Z,5.50
2019-06-20T13:20:05.750Z,6.62
2019-06-20T13:22:34.460Z,6.15
2019-06-20T13:25:02.907Z,5.47
2019-06-20T13:27:31.141Z,5.60
2019-06-20T13:29:59.505Z,6.33
2019-06-20T13:32:27.754Z,6.92
2019-06-20T13:34:56.152Z,6.60
2019-06-20T13:37:24.564Z,6.67
2019-06-20T13:39:52.786Z,6.30
2019-06-20T13:42:21.144Z,6.12
2019-06-20T13:44:50.059Z,7.20
2019-06-20T13:47:18.322Z,5.75
2019-06-20T13:49:47.684Z,5.12
2019-06-20T13:52:16.300Z,5.33
2019-06-20T13:54:46.298Z,5.12
2019-06-20T13:57:15.112Z,5.87
2019-06-20T13:59:43.461Z,6.12
2019-06-20T14:02:11.906Z,5.95
2019-06-20T14:04:42.510Z,6.87
2019-06-20T14:07:10.344Z,7.87
2019-06-20T14:09:38.953Z,5.20
2019-06-20T14:12:07.327Z,5.40
2019-06-20T14:14:35.659Z,6.75
2019-06-20T14:17:04.209Z,5.47
2019-06-20T14:19:32.733Z,8.45
2019-06-20T14:22:01.557Z,12.85
2019-06-20T14:24:30.696Z,7.92
2019-06-20T14:26:59.545Z,7.12
2019-06-20T14:29:28.104Z,5.35
2019-06-20T14:31:56.709Z,19.30
2019-06-20T14:34:24.993Z,8.78
2019-06-20T14:36:54.004Z,22.40
2019-06-20T14:39:22.671Z,23.60
2019-06-20T14:41:51.519Z,11.30
2019-06-20T14:44:21.150Z,10.95
2019-06-20T14:46:50.255Z,4.72
2019-06-20T14:49:19.123Z,7.37
2019-06-20T14:51:48.492Z,30.37
2019-06-20T14:54:19.592Z,8.93
2019-06-20T14:56:47.936Z,23.92
2019-06-20T14:59:16.363Z,29.72
2019-06-20T15:01:46.041Z,6.17
2019-06-20T15:04:14.941Z,5.03
2019-06-20T15:06:44.895Z,5.50
2019-06-20T15:09:13.712Z,7.87
2019-06-20T15:11:47.808Z,6.00
2019-06-20T15:14:15.359Z,7.05
2019-06-20T15:16:46.168Z,6.58
2019-06-20T15:19:14.278Z,5.95
2019-06-20T15:21:42.783Z,6.53
2019-06-20T15:24:11.546Z,5.85
2019-06-20T15:26:41.134Z,6.67
2019-06-20T15:29:09.782Z,6.70
2019-06-20T15:31:38.012Z,6.12
2019-06-20T15:34:06.830Z,6.42
2019-06-20T15:36:35.408Z,6.30
2019-06-20T15:39:05.618Z,6.78
2019-06-20T15:41:34.012Z,6.47
2019-06-20T15:44:03.053Z,6.62
2019-06-20T15:46:31.281Z,7.70
2019-06-20T15:49:00.295Z,6.12
2019-06-20T15:51:30.113Z,6.70
2019-06-20T15:53:59.085Z,6.00
2019-06-20T15:56:28.232Z,6.00
2019-06-20T15:58:56.805Z,6.40
2019-06-20T16:01:25.103Z,6.45
2019-06-20T16:03:53.665Z,6.15
2019-06-20T16:06:22.291Z,7.70
2019-06-20T16:08:52.011Z,7.05
2019-06-20T16:11:20.489Z,9.00
2019-06-20T16:13:50.280Z,10.30
2019-06-20T16:16:19.088Z,11.00
2019-06-20T16:18:47.459Z,11.38
2019-06-20T16:21:16.051Z,10.85
2019-06-20T16:23:44.663Z,10.95
2019-06-20T16:26:12.936Z,10.13
2019-06-20T16:28:46.480Z,9.40
2019-06-20T16:31:26.221Z,8.00
2019-06-20T16:33:44.814Z,7.78
2019-06-20T16:36:13.325Z,7.40
2019-06-20T16:38:41.615Z,9.25
2019-06-20T16:41:10.453Z,7.97
2019-06-20T16:43:39.135Z,10.63
2019-06-20T16:46:07.609Z,8.45
2019-06-20T16:48:35.973Z,8.30
2019-06-20T16:51:04.711Z,8.58
2019-06-20T16:53:33.453Z,10.48
2019-06-20T16:56:02.251Z,9.88
2019-06-20T16:58:30.827Z,8.58
2019-06-20T17:00:59.367Z,9.03
2019-06-20T17:03:41.376Z,9.70
2019-06-20T17:05:59.149Z,7.42
2019-06-20T17:08:27.500Z,8.20
2019-06-20T17:10:55.757Z,8.75
2019-06-20T17:13:24.354Z,9.15
2019-06-20T17:15:52.654Z,9.20
2019-06-20T17:18:21.008Z,11.70
2019-06-20T17:20:49.407Z,10.72
2019-06-20T17:23:17.712Z,8.38
2019-06-20T17:25:46.178Z,8.50
2019-06-20T17:28:14.614Z,8.80
2019-06-20T17:30:43.916Z,10.40
2019-06-20T17:33:14.716Z,8.48
2019-06-20T17:35:43.769Z,9.25
2019-06-20T17:38:12.329Z,8.93
2019-06-20T17:40:41.131Z,8.70
2019-06-20T17:43:09.818Z,14.23
2019-06-20T17:45:39.020Z,18.42
2019-06-20T17:48:08.735Z,10.25
2019-06-20T17:50:37.732Z,11.20
2019-06-20T17:53:06.621Z,10.75
2019-06-20T17:55:36.009Z,11.43
2019-06-20T17:58:05.329Z,22.32
2019-06-20T18:00:34.552Z,16.23
2019-06-20T18:03:04.474Z,14.95
2019-06-20T18:05:33.110Z,10.53
2019-06-20T18:08:14.969Z,8.30
2019-06-20T18:10:37.615Z,11.33
2019-06-20T18:13:06.009Z,36.60
2019-06-20T18:15:34.590Z,25.70
2019-06-20T18:18:03.373Z,13.38
2019-06-20T18:20:32.052Z,10.60
2019-06-20T18:23:01.076Z,10.75
2019-06-20T18:25:31.772Z,26.70
2019-06-20T18:27:59.735Z,24.98
2019-06-20T18:30:41.028Z,22.58
2019-06-20T18:33:10.372Z,11.60
2019-06-20T18:35:38.737Z,15.30
2019-06-20T18:38:07.305Z,12.88
2019-06-20T18:40:37.650Z,13.75
2019-06-20T18:43:06.638Z,11.20
2019-06-20T18:45:35.036Z,15.05
2019-06-20T18:48:04.138Z,19.32
2019-06-20T18:50:33.411Z,12.45
2019-06-20T18:53:01.812Z,12.25
2019-06-20T18:55:30.649Z,12.20
2019-06-20T18:57:59.488Z,11.10
2019-06-20T19:00:34.705Z,11.78
2019-06-20T19:02:59.484Z,14.95
2019-06-20T19:05:28.372Z,15.03
2019-06-20T19:07:57.060Z,22.98
2019-06-20T19:10:25.803Z,21.33
2019-06-20T19:12:55.047Z,16.67
2019-06-20T19:15:23.506Z,15.38
2019-06-20T19:17:53.349Z,14.80
2019-06-20T19:20:21.716Z,15.95
2019-06-20T19:22:49.913Z,17.98
2019-06-20T19:25:18.461Z,23.60
2019-06-20T19:27:47.187Z,19.25
2019-06-20T19:30:16.516Z,19.65
2019-06-20T19:32:45.620Z,16.87
2019-06-20T19:35:15.213Z,17.37
2019-06-20T19:37:45.466Z,16.60
2019-06-20T19:40:15.799Z,15.03
2019-06-20T19:42:45.106Z,15.68
2019-06-20T19:45:14.889Z,17.32
2019-06-20T19:47:44.010Z,18.02
2019-06-20T19:50:12.451Z,15.58
2019-06-20T19:52:41.475Z,16.65
2019-06-20T19:55:14.522Z,16.87
2019-06-20T19:57:45.077Z,17.48
2019-06-20T20:00:15.347Z,17.70
2019-06-20T20:02:45.556Z,17.90
2019-06-20T20:05:19.617Z,18.05
2019-06-20T20:07:46.838Z,16.32
2019-06-20T20:10:18.289Z,15.17
2019-06-20T20:12:48.086Z,18.48
2019-06-20T20:15:17.166Z,13.13
2019-06-20T20:17:45.599Z,15.15
2019-06-20T20:20:15.062Z,15.00
2019-06-20T20:22:47.034Z,14.73
2019-06-20T20:25:15.318Z,14.40
2019-06-20T20:27:46.381Z,14.43
2019-06-20T20:30:14.600Z,14.60
2019-06-20T20:32:43.066Z,14.45
2019-06-20T20:35:11.415Z,13.65
2019-06-20T20:37:41.048Z,13.43
2019-06-20T20:40:10.894Z,13.55
2019-06-20T20:42:39.108Z,13.93
2019-06-20T20:45:09.148Z,13.58
2019-06-20T20:47:39.691Z,13.15
2019-06-20T20:50:08.391Z,13.45
2019-06-20T20:52:36.968Z,14.55
2019-06-20T20:55:06.116Z,12.78
2019-06-20T20:57:34.382Z,14.30
2019-06-20T21:00:03.879Z,12.85
2019-06-20T21:02:32.406Z,12.05
2019-06-20T21:05:00.887Z,14.87
2019-06-20T21:07:29.119Z,13.68
2019-06-20T21:09:57.851Z,12.65
2019-06-20T21:12:26.529Z,14.77
2019-06-20T21:14:55.772Z,12.55
2019-06-20T21:17:24.683Z,12.43
2019-06-20T21:19:52.987Z,12.50
2019-06-20T21:22:21.242Z,13.13
2019-06-20T21:24:49.955Z,12.82
2019-06-20T21:27:18.612Z,12.88
2019-06-20T21:29:47.267Z,12.10
2019-06-20T21:32:15.658Z,12.30
2019-06-20T21:34:43.943Z,11.80
2019-06-20T21:37:12.215Z,12.98
2019-06-20T21:39:41.679Z,14.57
2019-06-20T21:42:10.296Z,13.43
2019-06-20T21:44:39.004Z,11.05
2019-06-20T21:47:07.859Z,13.10
2019-06-20T21:49:37.154Z,12.53
2019-06-20T21:52:05.793Z,12.63
2019-06-20T21:54:34.169Z,12.07
2019-06-20T21:57:03.140Z,13.40
2019-06-20T21:59:31.543Z,12.18
2019-06-20T22:02:00.052Z,10.70
2019-06-20T22:04:28.980Z,11.97
2019-06-20T22:06:57.796Z,11.53
2019-06-20T22:09:26.572Z,11.77
2019-06-20T22:11:54.813Z,12.90
2019-06-20T22:14:23.232Z,12.20
2019-06-20T22:16:52.175Z,12.47
2019-06-20T22:19:20.570Z,11.97
2019-06-20T22:21:49.377Z,13.08
2019-06-20T22:24:17.894Z,14.20
2019-06-20T22:26:46.145Z,14.73
2019-06-20T22:29:14.688Z,15.40
2019-06-20T22:31:43.131Z,15.40
2019-06-20T22:34:12.130Z,13.37
2019-06-20T22:36:40.882Z,14.58
2019-06-20T22:39:10.793Z,15.57
2019-06-20T22:41:40.229Z,13.62
2019-06-20T22:44:08.647Z,14.53
2019-06-20T22:46:37.299Z,14.57
2019-06-20T22:49:06.202Z,14.07
2019-06-20T22:51:34.601Z,14.40
2019-06-20T22:54:03.246Z,14.40
2019-06-20T22:56:31.899Z,13.70
2019-06-20T22:59:00.696Z,13.20
2019-06-20T23:01:29.513Z,13.30
2019-06-20T23:03:57.917Z,12.10
2019-06-20T23:06:26.590Z,11.65
2019-06-20T23:08:54.839Z,11.43
2019-06-20T23:11:23.396Z,11.90
2019-06-20T23:13:51.867Z,14.27
2019-06-20T23:16:20.353Z,12.13
2019-06-20T23:18:48.965Z,12.23
2019-06-20T23:21:17.485Z,14.07
2019-06-20T23:23:46.353Z,14.55
2019-06-20T23:26:15.249Z,12.27
2019-06-20T23:28:43.532Z,19.53
2019-06-20T23:31:11.919Z,13.97
2019-06-20T23:33:40.293Z,14.30
2019-06-20T23:36:08.917Z,13.70
2019-06-20T23:38:37.135Z,12.05
2019-06-20T23:41:05.757Z,10.73
2019-06-20T23:43:35.284Z,11.40
2019-06-20T23:46:03.658Z,11.33
2019-06-20T23:48:31.983Z,14.47
2019-06-20T23:51:00.551Z,13.90
2019-06-20T23:53:28.986Z,10.43
2019-06-20T23:55:57.688Z,12.00
2019-06-20T23:58:26.990Z,12.77
